Time;durP1;ratioP1;P1;durP2;ratioP2;P2;SDS_P1;SDS_P2;PMS_P1;PMS_P2;Temp;Humidity;BMP_temperature;BMP_pressure;BME280_temperature;BME280_humidity;BME280_pressure;Samples;Min_cycle;Max_cycle;Signal;HPM_P1;HPM_P2
2023/03/06 00:02:19;;;;;;;2.30;1.23;;;1.50;99.90;1.30;99541.00;;;;4931369;28;104694;-64
2023/03/06 00:04:44;;;;;;;3.93;1.97;;;1.90;99.90;1.30;99552.00;;;;4931734;28;122264;-65
2023/03/06 00:07:10;;;;;;;2.60;1.73;;;1.60;99.90;1.30;99566.00;;;;4930375;28;123023;-64
2023/03/06 00:09:36;;;;;;;2.37;1.53;;;1.60;99.90;1.30;99546.00;;;;4930359;28;99845;-66
2023/03/06 00:12:02;;;;;;;1.40;1.27;;;1.60;99.90;1.40;99548.00;;;;4932419;28;108570;-66
2023/03/06 00:14:27;;;;;;;2.83;1.80;;;1.80;99.90;1.40;99548.00;;;;4953806;28;108184;-66
2023/03/06 00:16:54;;;;;;;1.97;1.87;;;2.60;99.90;1.40;99538.00;;;;4952717;28;121462;-66
2023/03/06 00:19:21;;;;;;;1.67;1.40;;;2.70;99.90;1.40;99541.00;;;;4924954;28;93067;-66
2023/03/06 00:21:47;;;;;;;2.07;1.60;;;1.70;99.90;1.40;99543.00;;;;4932480;28;99022;-67
2023/03/06 00:24:13;;;;;;;3.33;2.30;;;2.30;99.90;1.40;99531.00;;;;4933785;28;121013;-66
2023/03/06 00:26:40;;;;;;;2.50;1.57;;;1.70;99.90;1.40;99542.00;;;;4931999;28;93825;-65
2023/03/06 00:29:06;;;;;;;2.47;2.10;;;1.70;99.90;1.50;99530.00;;;;4934233;28;92823;-66
2023/03/06 00:31:32;;;;;;;2.43;1.57;;;1.70;99.90;1.50;99533.00;;;;4934266;28;92964;-65
2023/03/06 00:33:58;;;;;;;1.93;1.73;;;1.70;99.90;1.50;99533.00;;;;4933119;28;94293;-65
2023/03/06 00:36:24;;;;;;;4.03;2.40;;;1.70;99.90;1.50;99536.00;;;;4933292;28;122468;-65
2023/03/06 00:38:49;;;;;;;1.30;1.20;;;1.70;99.90;1.50;99525.00;;;;4919523;28;109739;-65
2023/03/06 00:41:15;;;;;;;2.87;2.07;;;1.80;99.90;1.50;99532.00;;;;4932607;28;108318;-65
2023/03/06 00:43:41;;;;;;;2.20;1.70;;;1.70;99.90;1.50;99521.00;;;;4933607;28;121672;-64
2023/03/06 00:46:06;;;;;;;3.70;2.20;;;2.70;99.90;1.50;99521.00;;;;4932679;28;121380;-65
2023/03/06 00:48:33;;;;;;;1.63;1.53;;;1.70;99.90;1.50;99515.00;;;;4933870;28;108200;-65
2023/03/06 00:50:59;;;;;;;2.37;2.07;;;1.90;99.90;1.60;99515.00;;;;4934142;28;108817;-63
2023/03/06 00:53:25;;;;;;;2.77;1.80;;;1.80;99.90;1.60;99512.00;;;;4933913;28;122547;-64
2023/03/06 00:55:50;;;;;;;2.20;1.20;;;1.90;99.90;1.60;99509.00;;;;4933574;28;123069;-64
2023/03/06 00:58:17;;;;;;;1.97;1.77;;;1.90;99.90;1.60;99510.00;;;;4933579;28;110520;-64
2023/03/06 01:00:42;;;;;;;2.37;2.17;;;1.90;99.90;1.70;99501.00;;;;4931896;28;108315;-63
2023/03/06 01:03:09;;;;;;;2.87;1.93;;;1.90;99.90;1.70;99508.00;;;;4933083;28;122303;-63
2023/03/06 01:05:36;;;;;;;2.47;2.10;;;2.50;99.90;1.70;99509.00;;;;4935718;28;93214;-63
2023/03/06 01:08:03;;;;;;;3.03;1.93;;;1.90;99.90;1.70;99500.00;;;;4933351;28;94416;-64
2023/03/06 01:10:29;;;;;;;3.03;1.83;;;1.90;99.90;1.70;99494.00;;;;4935144;28;93767;-64
2023/03/06 01:12:55;;;;;;;4.40;2.40;;;2.10;99.90;1.80;99484.00;;;;4932308;28;121368;-63
2023/03/06 01:15:21;;;;;;;2.57;2.27;;;2.10;99.90;1.80;99486.00;;;;4934799;28;124709;-63
2023/03/06 01:17:51;;;;;;;4.13;3.13;;;2.00;99.90;1.80;99499.00;;;;4917401;28;96195;-63
2023/03/06 01:20:17;;;;;;;6.40;2.83;;;2.00;99.90;1.80;99488.00;;;;4932815;28;92956;-63
2023/03/06 01:22:44;;;;;;;2.80;2.00;;;2.10;99.90;1.80;99478.00;;;;4934760;28;110920;-63
2023/03/06 01:25:11;;;;;;;4.67;2.53;;;2.10;99.90;1.80;99484.00;;;;4933846;28;123065;-63
2023/03/06 01:27:36;;;;;;;4.90;2.10;;;2.70;99.90;1.80;99475.00;;;;4934084;28;101464;-63
2023/03/06 01:30:04;;;;;;;5.07;2.70;;;3.10;99.90;1.80;99478.00;;;;4933258;28;110454;-62
2023/03/06 01:32:30;;;;;;;3.97;2.20;;;1.90;99.90;1.70;99477.00;;;;4932697;28;102208;-63
2023/03/06 01:34:56;;;;;;;4.40;2.60;;;1.90;99.90;1.70;99481.00;;;;4916608;28;93980;-62
2023/03/06 01:37:22;;;;;;;6.37;2.40;;;1.40;99.90;1.70;99468.00;;;;4936545;28;92848;-63
2023/03/06 01:39:47;;;;;;;4.43;2.67;;;1.40;99.90;1.70;99477.00;;;;4916712;28;108911;-63
2023/03/06 01:42:13;;;;;;;2.00;1.83;;;2.00;99.90;1.70;99469.00;;;;4931576;28;111615;-62
2023/03/06 01:45:02;;;;;;;3.10;2.67;;;2.90;99.90;1.70;99470.00;;;;4934072;28;92847;-62
2023/03/06 01:47:28;;;;;;;3.30;2.73;;;2.00;99.90;1.70;99473.00;;;;4933903;28;92767;-62
2023/03/06 01:49:56;;;;;;;4.53;3.20;;;2.00;99.90;1.70;99474.00;;;;4913682;28;93071;-62
2023/03/06 01:52:29;;;;;;;2.30;2.10;;;1.80;99.90;1.70;99473.00;;;;4932876;28;93365;-64
2023/03/06 01:55:02;;;;;;;3.17;2.37;;;2.00;99.90;1.70;99468.00;;;;4931489;28;92953;-64
2023/03/06 01:57:41;;;;;;;4.03;2.30;;;2.00;99.90;1.70;99469.00;;;;4911191;28;93093;-63
2023/03/06 02:00:14;;;;;;;2.23;1.83;;;2.00;99.90;1.70;99460.00;;;;4930742;28;96013;-63
2023/03/06 02:02:45;;;;;;;5.33;2.33;;;1.90;99.90;1.70;99458.00;;;;4933764;28;93633;-63
2023/03/06 02:05:11;;;;;;;5.03;1.93;;;1.90;99.90;1.70;99455.00;;;;4931612;28;105397;-64
2023/03/06 02:07:39;;;;;;;3.10;2.50;;;2.40;99.90;1.70;99460.00;;;;4933938;28;92810;-64
2023/03/06 02:10:05;;;;;;;3.23;2.50;;;2.00;99.90;1.70;99454.00;;;;4932509;28;92919;-63
2023/03/06 02:12:31;;;;;;;3.03;2.00;;;2.00;99.90;1.70;99461.00;;;;4931650;28;93703;-64
2023/03/06 02:14:57;;;;;;;3.93;2.50;;;1.90;99.90;1.70;99460.00;;;;4930968;28;105880;-62
2023/03/06 02:17:23;;;;;;;2.97;2.57;;;2.00;99.90;1.70;99453.00;;;;4932912;28;109149;-63
2023/03/06 02:20:11;;;;;;;4.97;3.50;;;1.90;99.90;1.60;99452.00;;;;4914430;28;110167;-63
2023/03/06 02:23:12;;;;;;;5.03;2.90;;;1.90;99.90;1.60;99459.00;;;;4932555;28;93947;-63
2023/03/06 02:25:55;;;;;;;4.37;2.63;;;1.90;99.90;1.60;99447.00;;;;4930659;28;93899;-63
2023/03/06 02:28:22;;;;;;;5.17;2.87;;;2.00;99.90;1.60;99437.00;;;;4929934;28;109799;-63
2023/03/06 02:30:52;;;;;;;2.30;1.57;;;2.00;99.90;1.70;99443.00;;;;4931015;28;109977;-62
2023/03/06 02:33:23;;;;;;;3.30;2.47;;;1.80;99.90;1.60;99443.00;;;;4932091;28;96540;-62
2023/03/06 02:35:59;;;;;;;3.03;2.50;;;2.80;99.90;1.60;99428.00;;;;4932082;28;93846;-62
2023/03/06 02:38:31;;;;;;;3.33;2.73;;;1.90;99.90;1.70;99425.00;;;;4932487;28;92702;-63
2023/03/06 02:40:57;;;;;;;5.67;3.23;;;1.90;99.90;1.70;99430.00;;;;4914854;28;93109;-63
2023/03/06 02:43:31;;;;;;;4.17;2.73;;;2.00;99.90;1.70;99435.00;;;;4918074;28;93014;-63
2023/03/06 02:45:57;;;;;;;5.20;3.87;;;2.10;99.90;1.70;99436.00;;;;4917106;28;97936;-64
2023/03/06 02:48:23;;;;;;;6.67;3.03;;;1.90;99.90;1.70;99424.00;;;;4931647;28;108914;-62
2023/03/06 02:50:49;;;;;;;4.80;3.10;;;1.90;99.90;1.70;99426.00;;;;4930098;28;108783;-63
2023/03/06 02:53:17;;;;;;;2.50;2.23;;;1.90;99.90;1.70;99427.00;;;;4932328;28;93305;-64
2023/03/06 02:55:43;;;;;;;3.83;2.67;;;1.90;99.90;1.70;99423.00;;;;4932663;28;110826;-63
2023/03/06 02:58:09;;;;;;;5.23;2.97;;;2.00;99.90;1.70;99427.00;;;;4931176;28;109730;-64
2023/03/06 03:00:35;;;;;;;2.73;2.17;;;1.90;99.90;1.70;99424.00;;;;4932338;28;92944;-62
2023/03/06 03:03:02;;;;;;;3.10;2.03;;;2.00;99.90;1.70;99423.00;;;;4930013;28;124396;-62
2023/03/06 03:05:27;;;;;;;4.10;2.33;;;2.00;99.90;1.70;99423.00;;;;4931353;28;114760;-62
2023/03/06 03:07:53;;;;;;;4.57;3.03;;;2.00;99.90;1.70;99417.00;;;;4930144;28;111025;-63
2023/03/06 03:10:19;;;;;;;7.10;3.27;;;2.10;99.90;1.70;99420.00;;;;4932203;28;107436;-63
2023/03/06 03:12:45;;;;;;;6.20;2.33;;;2.00;99.90;1.70;99416.00;;;;4931060;28;93802;-63
2023/03/06 03:15:11;;;;;;;3.67;2.23;;;1.90;99.90;1.70;99416.00;;;;4928358;28;122727;-62
2023/03/06 03:17:40;;;;;;;3.87;2.53;;;1.90;99.90;1.70;99408.00;;;;4930661;28;110744;-63
2023/03/06 03:20:12;;;;;;;4.20;2.40;;;2.00;99.90;1.70;99406.00;;;;4931831;28;100179;-63
2023/03/06 03:22:38;;;;;;;4.40;2.87;;;2.60;99.90;1.70;99403.00;;;;4931589;28;94227;-63
2023/03/06 03:25:05;;;;;;;5.00;2.97;;;2.00;99.90;1.70;99402.00;;;;4930539;28;93690;-63
2023/03/06 03:27:30;;;;;;;4.97;3.30;;;1.90;99.90;1.70;99412.00;;;;4928694;28;94089;-64
2023/03/06 03:29:57;;;;;;;3.80;3.43;;;1.90;99.90;1.70;99394.00;;;;4929057;28;108623;-62
2023/03/06 03:32:23;;;;;;;5.77;2.77;;;1.90;99.90;1.70;99388.00;;;;4932208;28;95289;-63
2023/03/06 03:34:49;;;;;;;2.70;2.43;;;1.90;99.90;1.70;99399.00;;;;4932312;28;93173;-63
2023/03/06 03:37:14;;;;;;;2.63;1.90;;;1.90;99.90;1.70;99387.00;;;;4929544;28;109380;-64
2023/03/06 03:39:40;;;;;;;4.00;2.83;;;1.90;99.90;1.70;99390.00;;;;4931406;28;109026;-63
2023/03/06 03:42:06;;;;;;;3.33;2.57;;;1.90;99.90;1.70;99384.00;;;;4929273;28;122211;-62
2023/03/06 03:44:32;;;;;;;4.47;2.77;;;1.90;99.90;1.70;99378.00;;;;4930939;28;112472;-64
2023/03/06 03:46:57;;;;;;;3.37;3.00;;;2.00;99.90;1.70;99368.00;;;;4929430;28;92791;-64
2023/03/06 03:49:23;;;;;;;5.07;2.73;;;1.90;99.90;1.60;99379.00;;;;4934134;28;109108;-63
2023/03/06 03:51:49;;;;;;;2.50;2.30;;;2.00;99.90;1.60;99365.00;;;;4934037;28;94041;-63
2023/03/06 03:54:23;;;;;;;3.23;2.83;;;2.10;99.90;1.70;99367.00;;;;4934559;28;122378;-63
2023/03/06 03:56:49;;;;;;;5.10;3.07;;;1.90;99.90;1.60;99359.00;;;;4938352;28;92139;-63
2023/03/06 03:59:15;;;;;;;2.37;1.63;;;1.90;99.90;1.60;99354.00;;;;4935061;28;100501;-63
2023/03/06 04:01:41;;;;;;;5.47;4.13;;;1.90;99.90;1.60;99360.00;;;;4935167;28;122650;-64
2023/03/06 04:04:07;;;;;;;4.60;2.90;;;1.80;99.90;1.60;99352.00;;;;4932047;28;123316;-63
2023/03/06 04:06:32;;;;;;;2.27;2.07;;;1.80;99.90;1.60;99345.00;;;;4942333;28;110270;-63
2023/03/06 04:08:58;;;;;;;6.00;3.10;;;1.80;99.90;1.60;99356.00;;;;4939558;28;93109;-64
2023/03/06 04:11:24;;;;;;;6.07;3.30;;;1.50;99.90;1.60;99354.00;;;;4934063;28;121209;-63
2023/03/06 04:13:49;;;;;;;2.67;2.20;;;1.80;99.90;1.60;99344.00;;;;4934034;28;122893;-63
2023/03/06 04:16:15;;;;;;;6.40;3.27;;;1.80;99.90;1.60;99348.00;;;;4930789;28;111483;-64
2023/03/06 04:18:41;;;;;;;4.03;2.53;;;1.80;99.90;1.50;99340.00;;;;4914221;28;107690;-64
2023/03/06 04:21:07;;;;;;;3.23;2.13;;;1.70;99.90;1.50;99333.00;;;;4933492;28;102352;-63
2023/03/06 04:23:32;;;;;;;2.77;2.27;;;1.90;99.90;1.50;99339.00;;;;4934156;28;116377;-63
2023/03/06 04:25:58;;;;;;;3.77;2.97;;;1.70;99.90;1.50;99333.00;;;;4932454;28;93166;-64
2023/03/06 04:28:24;;;;;;;4.47;3.37;;;1.80;99.90;1.50;99335.00;;;;4930890;28;108990;-63
2023/03/06 04:30:50;;;;;;;3.57;2.70;;;1.70;99.90;1.50;99330.00;;;;4915760;28;94731;-65
2023/03/06 04:33:16;;;;;;;3.70;2.93;;;1.70;99.90;1.40;99333.00;;;;4932358;28;107013;-63
2023/03/06 04:35:41;;;;;;;5.20;4.33;;;1.70;99.90;1.40;99339.00;;;;4932201;28;109373;-63
2023/03/06 04:38:07;;;;;;;9.37;3.93;;;1.70;99.90;1.40;99329.00;;;;4934231;28;110648;-64
2023/03/06 04:40:35;;;;;;;5.00;2.50;;;1.60;99.90;1.50;99328.00;;;;4918242;28;122227;-64
2023/03/06 04:43:02;;;;;;;3.27;3.03;;;1.70;99.90;1.50;99333.00;;;;4934915;28;92992;-62
2023/03/06 04:45:28;;;;;;;5.03;2.73;;;1.80;99.90;1.40;99335.00;;;;4936053;28;92091;-65
2023/03/06 04:47:55;;;;;;;3.97;2.63;;;1.70;99.90;1.40;99339.00;;;;4935189;28;97264;-64
2023/03/06 04:50:22;;;;;;;2.90;2.40;;;1.70;99.90;1.40;99333.00;;;;4936728;28;94071;-64
2023/03/06 04:52:48;;;;;;;4.17;3.03;;;2.10;99.90;1.40;99325.00;;;;4936546;28;94966;-65
2023/03/06 04:55:16;;;;;;;4.33;2.23;;;2.50;99.90;1.40;99326.00;;;;4935814;28;92685;-65
2023/03/06 04:57:44;;;;;;;4.97;3.03;;;1.70;99.90;1.40;99324.00;;;;4933903;28;93039;-64
2023/03/06 05:00:18;;;;;;;3.73;3.03;;;0.90;99.90;1.40;99327.00;;;;4915337;28;112265;-63
2023/03/06 05:02:44;;;;;;;5.73;2.67;;;1.60;99.90;1.40;99326.00;;;;4934899;28;93629;-64
2023/03/06 05:05:12;;;;;;;4.33;3.57;;;1.70;99.90;1.40;99325.00;;;;4935879;28;103133;-64
2023/03/06 05:07:38;;;;;;;7.13;3.73;;;1.60;99.90;1.40;99325.00;;;;4933495;28;92653;-63
2023/03/06 05:10:05;;;;;;;6.03;3.23;;;1.50;99.90;1.40;99326.00;;;;4936543;28;92745;-64
2023/03/06 05:12:34;;;;;;;6.17;3.23;;;1.60;99.90;1.30;99318.00;;;;4932253;28;93028;-64
2023/03/06 05:15:00;;;;;;;5.03;3.10;;;1.60;99.90;1.30;99323.00;;;;4933525;28;100525;-64
2023/03/06 05:17:25;;;;;;;7.13;4.60;;;1.60;99.90;1.30;99315.00;;;;4934693;28;108073;-63
2023/03/06 05:19:51;;;;;;;3.70;3.33;;;1.60;99.90;1.30;99316.00;;;;4933356;28;122878;-64
2023/03/06 05:22:17;;;;;;;3.77;2.97;;;1.60;99.90;1.30;99312.00;;;;4934686;28;122428;-64
2023/03/06 05:24:42;;;;;;;6.53;3.83;;;1.50;99.90;1.30;99310.00;;;;4936018;28;111601;-64
2023/03/06 05:27:08;;;;;;;4.37;3.30;;;1.60;99.90;1.30;99315.00;;;;4933928;28;108042;-63
2023/03/06 05:29:34;;;;;;;4.83;3.77;;;1.60;99.90;1.30;99307.00;;;;4932929;28;122676;-64
2023/03/06 05:31:59;;;;;;;5.73;2.93;;;2.40;99.90;1.30;99318.00;;;;4932062;28;122915;-63
2023/03/06 05:34:25;;;;;;;7.60;3.83;;;1.60;99.90;1.30;99321.00;;;;4933379;28;109323;-64
2023/03/06 05:36:50;;;;;;;7.23;3.83;;;2.70;99.90;1.30;99329.00;;;;4933066;28;108393;-64
2023/03/06 05:39:16;;;;;;;9.37;3.93;;;1.60;99.90;1.30;99324.00;;;;4932731;28;123402;-63
2023/03/06 05:41:42;;;;;;;5.33;3.60;;;2.60;99.90;1.30;99315.00;;;;4934840;28;93714;-64
2023/03/06 05:44:07;;;;;;;4.90;3.77;;;1.50;99.90;1.20;99315.00;;;;4932884;28;109703;-64
2023/03/06 05:46:33;;;;;;;8.07;3.53;;;1.50;99.90;1.20;99315.00;;;;4933763;28;107331;-63
2023/03/06 05:48:59;;;;;;;4.20;3.27;;;2.00;99.90;1.20;99316.00;;;;4911512;28;122313;-65
2023/03/06 05:51:25;;;;;;;9.43;3.07;;;1.50;99.90;1.20;99321.00;;;;4935014;28;123367;-63
2023/03/06 05:53:51;;;;;;;6.03;2.67;;;2.30;99.90;1.20;99313.00;;;;4932852;28;92766;-64
2023/03/06 05:56:17;;;;;;;7.70;3.73;;;1.00;99.90;1.20;99314.00;;;;4930706;28;93123;-64
2023/03/06 05:58:43;;;;;;;6.80;3.53;;;1.40;99.90;1.20;99316.00;;;;4928931;28;93568;-64
2023/03/06 06:01:16;;;;;;;7.80;3.57;;;1.50;99.90;1.20;99323.00;;;;4929080;28;118359;-63
2023/03/06 06:03:42;;;;;;;4.93;4.23;;;1.40;99.90;1.20;99318.00;;;;4928100;28;93012;-63
2023/03/06 06:06:11;;;;;;;5.00;3.30;;;2.10;99.90;1.10;99316.00;;;;4929833;28;98595;-64
2023/03/06 06:08:37;;;;;;;4.70;4.03;;;1.30;99.90;1.10;99318.00;;;;4929366;28;93809;-64
2023/03/06 06:11:05;;;;;;;6.83;3.53;;;1.40;99.90;1.10;99319.00;;;;4929723;28;104210;-64
2023/03/06 06:13:31;;;;;;;7.17;4.77;;;2.30;99.90;1.10;99326.00;;;;4927372;28;95647;-64
2023/03/06 06:15:57;;;;;;;11.00;4.70;;;1.50;99.90;1.10;99322.00;;;;4930129;28;92932;-64
2023/03/06 06:18:23;;;;;;;5.90;4.27;;;1.40;99.90;1.20;99324.00;;;;4931675;28;121624;-64
2023/03/06 06:20:48;;;;;;;5.67;3.57;;;1.40;99.90;1.20;99320.00;;;;4930883;28;121975;-64
2023/03/06 06:23:14;;;;;;;5.77;4.00;;;1.40;99.90;1.20;99319.00;;;;4931126;28;110420;-64
2023/03/06 06:25:40;;;;;;;8.07;4.53;;;1.50;99.90;1.20;99323.00;;;;4931454;28;108273;-65
2023/03/06 06:28:05;;;;;;;5.40;4.33;;;1.50;99.90;1.20;99323.00;;;;4930048;28;120245;-65
2023/03/06 06:30:32;;;;;;;4.87;3.67;;;1.50;99.90;1.20;99312.00;;;;4929621;28;110851;-65
2023/03/06 06:32:59;;;;;;;4.33;3.17;;;1.50;99.90;1.20;99322.00;;;;4930721;28;109745;-64
2023/03/06 06:35:25;;;;;;;4.57;3.20;;;1.60;99.90;1.30;99316.00;;;;4932170;28;109222;-65
2023/03/06 06:37:51;;;;;;;6.03;5.43;;;1.50;99.90;1.30;99314.00;;;;4927776;28;93641;-65
2023/03/06 06:40:17;;;;;;;8.03;4.53;;;1.60;99.90;1.30;99326.00;;;;4931518;28;93595;-64
2023/03/06 06:42:45;;;;;;;8.47;4.77;;;1.60;99.90;1.40;99317.00;;;;4933736;28;92973;-64
2023/03/06 06:45:26;;;;;;;5.80;4.10;;;1.60;99.90;1.40;99321.00;;;;4932825;28;92709;-65
2023/03/06 06:47:52;;;;;;;6.57;4.30;;;1.60;99.90;1.50;99319.00;;;;4935396;28;110100;-65
2023/03/06 06:50:18;;;;;;;5.20;3.67;;;1.80;99.90;1.60;99328.00;;;;4932592;28;121392;-64
2023/03/06 06:52:43;;;;;;;7.50;3.83;;;1.80;99.90;1.60;99311.00;;;;4915610;28;92948;-65
2023/03/06 06:55:11;;;;;;;4.37;2.83;;;1.90;99.90;1.70;99319.00;;;;4929385;28;107078;-66
2023/03/06 06:57:37;;;;;;;7.87;3.90;;;1.90;99.90;1.80;99319.00;;;;4934093;28;95232;-66
2023/03/06 07:00:04;;;;;;;6.90;3.17;;;3.00;99.90;1.90;99325.00;;;;4933743;28;94006;-66
2023/03/06 07:02:31;;;;;;;6.03;4.27;;;2.00;99.90;2.00;99326.00;;;;4932518;28;98968;-65
2023/03/06 07:04:57;;;;;;;8.90;4.40;;;2.60;99.90;2.10;99315.00;;;;4929708;28;93209;-65
2023/03/06 07:07:23;;;;;;;7.37;4.17;;;2.40;99.90;2.20;99316.00;;;;4931041;28;94107;-66
2023/03/06 07:09:49;;;;;;;5.90;3.97;;;2.40;99.90;2.30;99311.00;;;;4931388;28;121817;-65
2023/03/06 07:12:14;;;;;;;6.57;4.80;;;2.50;99.90;2.40;99310.00;;;;4930663;28;110087;-66
2023/03/06 07:14:41;;;;;;;8.03;4.63;;;2.60;99.90;2.50;99306.00;;;;4934512;28;92790;-65
2023/03/06 07:17:08;;;;;;;9.23;4.57;;;3.60;99.90;2.60;99316.00;;;;4931853;28;93780;-65
2023/03/06 07:19:34;;;;;;;4.43;3.90;;;2.70;99.90;2.60;99322.00;;;;4931006;28;93980;-65
2023/03/06 07:22:00;;;;;;;6.00;3.80;;;3.00;99.90;2.70;99317.00;;;;4930780;28;110389;-66
2023/03/06 07:24:26;;;;;;;5.47;4.20;;;2.80;99.90;2.70;99315.00;;;;4931984;28;93050;-65
2023/03/06 07:26:52;;;;;;;7.13;3.90;;;2.80;99.90;2.70;99312.00;;;;4932425;28;93165;-66
2023/03/06 07:29:18;;;;;;;5.90;4.43;;;2.90;99.90;2.70;99318.00;;;;4930813;28;121473;-64
2023/03/06 07:31:44;;;;;;;6.13;3.50;;;3.00;99.90;2.80;99311.00;;;;4929959;28;109640;-66
2023/03/06 07:34:13;;;;;;;5.13;3.33;;;2.50;99.90;2.80;99319.00;;;;4913228;28;109875;-65
2023/03/06 07:36:39;;;;;;;4.40;3.30;;;3.00;99.90;2.80;99314.00;;;;4933791;28;92363;-65
2023/03/06 07:39:08;;;;;;;4.97;3.53;;;3.80;99.90;2.80;99319.00;;;;4931443;28;92980;-66
2023/03/06 07:41:34;;;;;;;6.27;3.73;;;3.00;99.90;2.80;99317.00;;;;4933057;28;92710;-66
2023/03/06 07:44:01;;;;;;;6.80;3.20;;;3.00;99.90;2.80;99319.00;;;;4916767;28;110633;-66
2023/03/06 07:46:26;;;;;;;4.03;3.17;;;3.00;99.90;2.90;99327.00;;;;4931453;28;93703;-65
2023/03/06 07:48:52;;;;;;;7.43;3.97;;;3.00;99.90;2.90;99317.00;;;;4930168;28;120034;-66
2023/03/06 07:51:20;;;;;;;6.47;4.13;;;3.00;99.90;2.90;99311.00;;;;4930694;28;92980;-65
2023/03/06 07:53:47;;;;;;;7.97;3.90;;;3.10;99.90;3.00;99322.00;;;;4931479;28;100035;-65
2023/03/06 07:56:13;;;;;;;4.87;3.40;;;3.20;99.90;3.00;99326.00;;;;4932417;28;93579;-66
2023/03/06 07:58:42;;;;;;;5.20;3.63;;;3.10;99.90;3.00;99319.00;;;;4941140;28;102135;-66
2023/03/06 08:01:14;;;;;;;4.73;3.60;;;3.20;99.90;3.00;99314.00;;;;4950057;28;92128;-65
2023/03/06 08:03:40;;;;;;;5.67;3.37;;;3.30;99.90;3.00;99309.00;;;;4939974;28;92726;-67
2023/03/06 08:06:10;;;;;;;6.50;4.17;;;3.60;99.90;3.00;99312.00;;;;4930622;28;122592;-67
2023/03/06 08:08:39;;;;;;;4.43;3.33;;;3.30;99.90;3.00;99310.00;;;;4932225;28;93757;-66
2023/03/06 08:11:07;;;;;;;5.37;4.07;;;3.20;99.90;3.10;99309.00;;;;4931258;28;92878;-67
2023/03/06 08:13:33;;;;;;;5.63;4.03;;;3.20;99.90;3.10;99294.00;;;;4930024;28;100414;-66
2023/03/06 08:15:59;;;;;;;5.97;3.30;;;3.30;99.90;3.10;99320.00;;;;4929567;28;117796;-67
2023/03/06 08:18:26;;;;;;;7.03;3.40;;;3.10;99.90;3.10;99311.00;;;;4914747;28;93680;-66
2023/03/06 08:21:09;;;;;;;7.60;4.40;;;3.60;99.90;3.20;99321.00;;;;4933894;28;93082;-66
2023/03/06 08:23:35;;;;;;;5.63;3.83;;;3.40;99.90;3.30;99311.00;;;;4932945;28;100679;-67
2023/03/06 08:26:12;;;;;;;6.33;3.63;;;4.00;99.90;3.30;99326.00;;;;4932271;28;98256;-68
2023/03/06 08:28:38;;;;;;;6.50;3.23;;;3.40;99.90;3.30;99319.00;;;;4932520;28;93192;-67
2023/03/06 08:31:35;;;;;;;11.73;4.30;;;4.30;99.90;3.30;99316.00;;;;4930236;28;101640;-66
2023/03/06 08:34:05;;;;;;;5.57;3.80;;;3.60;99.90;3.30;99325.00;;;;4914455;28;95139;-65
2023/03/06 08:36:31;;;;;;;7.50;4.17;;;3.50;99.90;3.30;99315.00;;;;4934345;28;103096;-67
2023/03/06 08:38:57;;;;;;;4.87;3.97;;;4.50;99.90;3.30;99317.00;;;;4933033;28;122479;-66
2023/03/06 08:41:24;;;;;;;9.50;4.63;;;3.40;99.90;3.30;99320.00;;;;4935317;28;92943;-66
2023/03/06 08:43:50;;;;;;;5.73;3.73;;;4.50;99.90;3.40;99322.00;;;;4933876;28;109843;-67
2023/03/06 08:46:17;;;;;;;7.70;4.33;;;4.50;99.90;3.50;99321.00;;;;4933339;28;93876;-67
2023/03/06 08:48:43;;;;;;;5.33;4.43;;;3.60;99.90;3.50;99312.00;;;;4919393;28;93894;-67
2023/03/06 08:51:10;;;;;;;4.43;4.00;;;3.60;99.90;3.60;99319.00;;;;4919304;28;97753;-66
2023/03/06 08:53:36;;;;;;;7.00;3.43;;;4.00;99.90;3.70;99315.00;;;;4934525;28;104376;-66
2023/03/06 08:56:02;;;;;;;5.37;3.00;;;3.80;99.90;3.70;99315.00;;;;4933206;28;108768;-66
2023/03/06 08:58:29;;;;;;;7.47;4.37;;;3.90;99.90;3.80;99316.00;;;;4932334;28;94250;-66
2023/03/06 09:00:55;;;;;;;7.63;3.90;;;3.90;99.90;3.80;99316.00;;;;4933300;28;92974;-67
2023/03/06 09:03:29;;;;;;;10.20;4.97;;;4.00;99.90;3.90;99317.00;;;;4934660;28;93006;-67
2023/03/06 09:05:55;;;;;;;4.77;4.00;;;4.00;99.90;4.00;99324.00;;;;4932148;28;123377;-66
2023/03/06 09:08:21;;;;;;;5.07;4.53;;;4.10;99.90;4.00;99320.00;;;;4931046;28;121374;-67
2023/03/06 09:10:47;;;;;;;8.60;4.60;;;4.20;99.90;4.20;99317.00;;;;4931202;28;110989;-65
2023/03/06 09:13:13;;;;;;;7.23;4.80;;;4.20;99.90;4.30;99311.00;;;;4932842;28;92718;-67
2023/03/06 09:15:39;;;;;;;7.77;4.80;;;4.30;99.90;4.30;99311.00;;;;4932899;28;123050;-68
2023/03/06 09:18:05;;;;;;;9.13;4.53;;;4.40;99.90;4.40;99323.00;;;;4931402;28;122013;-66
2023/03/06 09:20:30;;;;;;;7.70;3.83;;;4.50;99.90;4.50;99312.00;;;;4935281;28;92949;-65
2023/03/06 09:22:57;;;;;;;5.83;4.33;;;4.60;99.90;4.60;99321.00;;;;4932547;28;93701;-66
2023/03/06 09:25:23;;;;;;;8.33;4.53;;;4.70;99.90;4.60;99334.00;;;;4935848;28;105829;-65
2023/03/06 09:27:50;;;;;;;6.60;4.17;;;4.70;99.90;4.70;99317.00;;;;4937496;28;94625;-65
2023/03/06 09:30:17;;;;;;;6.17;4.03;;;4.70;99.90;4.70;99315.00;;;;4935965;28;92806;-66
2023/03/06 09:32:43;;;;;;;13.60;5.40;;;4.80;99.90;4.70;99321.00;;;;4936751;28;92702;-65
2023/03/06 09:35:10;;;;;;;6.30;4.07;;;4.80;99.90;4.60;99319.00;;;;4933158;28;122385;-66
2023/03/06 09:37:35;;;;;;;6.13;4.30;;;4.80;99.90;4.60;99319.00;;;;4935097;28;93544;-67
2023/03/06 09:40:05;;;;;;;12.30;4.57;;;4.20;99.90;4.60;99325.00;;;;4935662;28;110741;-66
2023/03/06 09:42:32;;;;;;;7.03;4.87;;;5.20;99.90;4.60;99315.00;;;;4917789;28;92700;-65
2023/03/06 09:45:03;;;;;;;6.00;4.13;;;5.00;99.90;4.60;99317.00;;;;4934650;28;93453;-65
2023/03/06 09:47:44;;;;;;;6.57;4.30;;;4.90;99.90;4.60;99314.00;;;;4934932;28;112305;-65
2023/03/06 09:50:35;;;;;;;5.37;3.60;;;4.80;99.90;4.60;99316.00;;;;4936323;28;93059;-67
2023/03/06 09:53:44;;;;;;;7.93;3.93;;;4.80;99.90;4.60;99313.00;;;;4936888;28;92722;-66
2023/03/06 09:56:23;;;;;;;6.00;4.03;;;4.70;99.90;4.60;99312.00;;;;4933533;28;115432;-66
2023/03/06 09:58:58;;;;;;;10.73;4.80;;;5.00;99.90;4.60;99321.00;;;;4916709;28;111011;-65
2023/03/06 10:01:29;;;;;;;6.43;3.93;;;4.80;99.90;4.60;99319.00;;;;4915821;28;93042;-66
2023/03/06 10:04:28;;;;;;;8.40;4.73;;;5.40;99.90;4.60;99316.00;;;;4933192;28;92974;-65
2023/03/06 10:06:59;;;;;;;4.53;3.83;;;4.70;99.90;4.60;99318.00;;;;4895584;28;92638;-66
2023/03/06 10:09:44;;;;;;;10.20;5.30;;;5.10;99.90;4.60;99319.00;;;;4918034;28;92839;-66
2023/03/06 10:12:22;;;;;;;8.47;4.70;;;4.80;99.90;4.70;99311.00;;;;4916660;28;93041;-65
2023/03/06 10:15:21;;;;;;;7.97;4.57;;;4.80;99.90;4.70;99314.00;;;;4933968;28;94001;-66
2023/03/06 10:17:47;;;;;;;5.80;4.27;;;4.90;99.90;4.80;99308.00;;;;4915159;28;92952;-66
2023/03/06 10:20:35;;;;;;;6.77;3.80;;;4.90;99.90;4.80;99294.00;;;;4914345;28;122221;-66
2023/03/06 10:23:23;;;;;;;6.07;3.73;;;4.90;99.90;4.90;99304.00;;;;4933016;28;101203;-66
2023/03/06 10:26:22;;;;;;;6.77;4.47;;;5.10;99.90;5.00;99300.00;;;;4918134;28;92801;-66
2023/03/06 10:29:09;;;;;;;7.97;4.27;;;5.80;99.90;5.10;99300.00;;;;4929706;28;94138;-66
2023/03/06 10:31:37;;;;;;;5.67;5.03;;;5.20;99.90;5.20;99292.00;;;;4930485;28;92946;-65
2023/03/06 10:34:23;;;;;;;8.87;4.43;;;5.30;99.90;5.20;99289.00;;;;4910845;28;102252;-66
2023/03/06 10:36:49;;;;;;;8.57;4.83;;;5.40;99.90;5.20;99296.00;;;;4917962;28;92996;-65
2023/03/06 10:39:19;;;;;;;8.33;4.33;;;5.30;99.90;5.20;99294.00;;;;4931552;28;108840;-65
2023/03/06 10:41:46;;;;;;;4.83;4.03;;;5.30;99.90;5.20;99292.00;;;;4931884;28;94069;-66
2023/03/06 10:44:12;;;;;;;8.03;4.73;;;5.40;99.90;5.20;99292.00;;;;4935954;28;95712;-66
2023/03/06 10:46:44;;;;;;;9.27;5.20;;;5.40;99.90;5.20;99306.00;;;;4932843;28;93803;-66
2023/03/06 10:49:34;;;;;;;5.93;4.07;;;5.40;99.90;5.20;99292.00;;;;4933971;28;93372;-66
2023/03/06 10:52:08;;;;;;;6.17;4.67;;;5.40;99.90;5.20;99292.00;;;;4916641;28;93111;-64
2023/03/06 10:54:41;;;;;;;6.30;4.33;;;5.40;99.90;5.10;99306.00;;;;4932002;28;94123;-67
2023/03/06 10:57:26;;;;;;;8.87;4.43;;;5.50;99.90;5.10;99290.00;;;;4932021;28;92868;-66
2023/03/06 11:00:07;;;;;;;5.50;4.63;;;5.30;99.90;5.10;99284.00;;;;4928528;28;93788;-66
2023/03/06 11:02:39;;;;;;;8.40;5.03;;;5.20;99.90;5.10;99289.00;;;;4931112;28;93192;-66
2023/03/06 11:05:17;;;;;;;5.70;4.00;;;5.20;99.90;5.00;99295.00;;;;4932343;28;92804;-65
2023/03/06 11:07:58;;;;;;;7.67;4.07;;;5.30;99.90;5.10;99296.00;;;;4930370;28;100154;-66
2023/03/06 11:10:26;;;;;;;8.70;5.43;;;5.20;99.90;5.20;99304.00;;;;4931781;28;93428;-66
2023/03/06 11:13:09;;;;;;;6.53;5.10;;;5.30;99.90;5.30;99295.00;;;;4931290;28;93432;-65